createdAt,value
2023-03-03T00:00:25.158Z,82.89
2023-03-03T00:02:27.878Z,82.59
2023-03-03T00:04:30.519Z,82.71
2023-03-03T00:06:33.314Z,82.87
2023-03-03T00:08:35.912Z,82.98
2023-03-03T00:10:39.578Z,82.33
2023-03-03T00:12:50.256Z,82.15
2023-03-03T00:14:53.720Z,82.14
2023-03-03T00:16:57.219Z,82.23
2023-03-03T00:19:01.368Z,82.37
2023-03-03T00:21:29.542Z,81.66
2023-03-03T00:23:37.580Z,82.22
2023-03-03T00:25:44.122Z,82.19
2023-03-03T00:27:47.441Z,82.49
2023-03-03T00:29:54.184Z,82.51
2023-03-03T00:32:16.799Z,82.58
2023-03-03T00:34:20.384Z,82.42
2023-03-03T00:36:32.938Z,82.52
2023-03-03T00:38:37.148Z,82.10
2023-03-03T00:40:40.993Z,82.26
2023-03-03T00:42:49.024Z,82.62
2023-03-03T00:44:59.917Z,82.56
2023-03-03T00:47:14.490Z,82.36
2023-03-03T00:49:26.308Z,82.45
2023-03-03T00:51:34.703Z,82.42
2023-03-03T00:53:37.410Z,82.96
2023-03-03T00:55:40.781Z,83.37
2023-03-03T00:57:43.481Z,83.09
2023-03-03T00:59:46.189Z,83.51
2023-03-03T01:01:48.915Z,84.03
2023-03-03T01:03:51.686Z,83.48
2023-03-03T01:05:54.889Z,83.55
2023-03-03T01:07:57.587Z,83.67
2023-03-03T01:10:00.211Z,83.74
2023-03-03T01:12:02.943Z,83.92
2023-03-03T01:14:05.637Z,84.59
2023-03-03T01:16:08.648Z,84.07
2023-03-03T01:18:13.117Z,84.62
2023-03-03T01:20:16.054Z,84.63
2023-03-03T01:22:18.912Z,85.15
2023-03-03T01:24:22.216Z,84.92
2023-03-03T01:26:24.952Z,85.72
2023-03-03T01:28:27.764Z,85.94
2023-03-03T01:30:31.432Z,85.69
2023-03-03T01:32:34.667Z,86.19
2023-03-03T01:34:37.297Z,86.25
2023-03-03T01:36:39.900Z,86.68
2023-03-03T01:38:43.491Z,87.35
2023-03-03T01:40:56.845Z,87.21
2023-03-03T01:43:01.154Z,87.26
2023-03-03T01:45:44.080Z,87.77
2023-03-03T01:47:58.907Z,87.89
2023-03-03T01:50:11.694Z,87.29
2023-03-03T01:52:36.351Z,87.91
2023-03-03T01:54:53.172Z,88.10
2023-03-03T01:56:59.907Z,87.78
2023-03-03T01:59:07.686Z,87.66
2023-03-03T02:01:14.950Z,88.56
2023-03-03T02:03:21.220Z,88.51
2023-03-03T02:05:23.909Z,88.36
2023-03-03T02:07:29.881Z,87.75
2023-03-03T02:09:47.442Z,88.27
2023-03-03T02:11:52.749Z,87.99
2023-03-03T02:13:55.701Z,87.96
2023-03-03T02:15:59.371Z,88.51
2023-03-03T02:18:11.703Z,88.79
2023-03-03T02:20:51.443Z,88.58
2023-03-03T02:23:16.753Z,88.93
2023-03-03T02:25:46.667Z,88.88
2023-03-03T02:27:49.792Z,88.67
2023-03-03T02:29:52.673Z,88.54
2023-03-03T02:31:55.570Z,89.18
2023-03-03T02:33:58.656Z,89.42
2023-03-03T02:36:01.250Z,89.21
2023-03-03T02:38:31.228Z,89.64
2023-03-03T02:40:41.091Z,90.26
2023-03-03T02:42:45.818Z,90.29
2023-03-03T02:44:48.458Z,90.53
2023-03-03T02:46:53.022Z,90.73
2023-03-03T02:48:55.730Z,90.95
2023-03-03T02:50:58.443Z,90.85
2023-03-03T02:53:01.028Z,90.25
2023-03-03T02:55:03.848Z,90.80
2023-03-03T02:57:07.428Z,91.03
2023-03-03T02:59:10.683Z,90.83
2023-03-03T03:01:13.351Z,90.92
2023-03-03T03:03:16.220Z,90.88
2023-03-03T03:05:18.860Z,91.10
2023-03-03T03:07:21.508Z,90.84
2023-03-03T03:09:26.110Z,91.25
2023-03-03T03:11:28.733Z,90.95
2023-03-03T03:13:32.168Z,91.33
2023-03-03T03:15:36.195Z,91.15
2023-03-03T03:17:39.777Z,90.75
2023-03-03T03:19:42.413Z,90.93
2023-03-03T03:21:45.099Z,91.35
2023-03-03T03:23:47.740Z,91.16
2023-03-03T03:25:50.593Z,90.85
2023-03-03T03:27:53.647Z,91.06
2023-03-03T03:29:56.365Z,90.55
2023-03-03T03:31:59.010Z,91.11
2023-03-03T03:34:01.835Z,90.92
2023-03-03T03:36:06.640Z,90.75
2023-03-03T03:38:09.234Z,90.63
2023-03-03T03:40:12.397Z,90.79
2023-03-03T03:42:15.578Z,90.73
2023-03-03T03:44:18.212Z,91.34
2023-03-03T03:46:21.029Z,91.35
2023-03-03T03:48:23.862Z,91.05
2023-03-03T03:50:27.019Z,91.26
2023-03-03T03:52:29.599Z,91.43
2023-03-03T03:54:32.271Z,91.75
2023-03-03T03:56:34.927Z,91.59
2023-03-03T03:58:37.708Z,91.97
2023-03-03T04:00:42.364Z,91.63
2023-03-03T04:02:45.053Z,91.75
2023-03-03T04:04:48.050Z,91.71
2023-03-03T04:06:50.690Z,91.84
2023-03-03T04:08:53.305Z,91.43
2023-03-03T04:10:55.993Z,92.02
2023-03-03T04:12:58.733Z,91.85
2023-03-03T04:15:01.478Z,91.56
2023-03-03T04:17:06.407Z,91.65
2023-03-03T04:19:08.988Z,91.78
2023-03-03T04:21:13.733Z,92.20
2023-03-03T04:23:16.303Z,91.25
2023-03-03T04:25:18.997Z,91.62
2023-03-03T04:27:21.713Z,91.15
2023-03-03T04:29:24.300Z,91.16
2023-03-03T04:31:27.000Z,90.63
2023-03-03T04:33:29.612Z,90.23
2023-03-03T04:35:32.601Z,90.35
2023-03-03T04:37:35.848Z,89.78
2023-03-03T04:39:38.465Z,90.08
2023-03-03T04:41:41.261Z,89.51
2023-03-03T04:43:44.110Z,89.72
2023-03-03T04:45:46.791Z,89.32
2023-03-03T04:47:49.436Z,89.75
2023-03-03T04:49:52.304Z,89.79
2023-03-03T04:51:54.941Z,89.69
2023-03-03T04:53:57.567Z,89.96
2023-03-03T04:56:00.533Z,90.53
2023-03-03T04:58:03.557Z,90.13
2023-03-03T05:00:06.964Z,89.76
2023-03-03T05:02:09.859Z,88.98
2023-03-03T05:04:12.621Z,88.84
2023-03-03T05:06:15.800Z,88.06
2023-03-03T05:08:18.469Z,87.47
2023-03-03T05:10:21.707Z,87.16
2023-03-03T05:12:24.465Z,86.74
2023-03-03T05:14:28.223Z,86.25
2023-03-03T05:16:30.930Z,85.85
2023-03-03T05:18:33.589Z,85.77
2023-03-03T05:20:36.227Z,84.46
2023-03-03T05:22:39.023Z,84.35
2023-03-03T05:24:43.251Z,83.96
2023-03-03T05:26:46.017Z,84.32
2023-03-03T05:28:48.720Z,83.81
2023-03-03T05:30:51.424Z,83.50
2023-03-03T05:32:54.112Z,83.32
2023-03-03T05:34:56.809Z,84.27
2023-03-03T05:36:59.707Z,83.86
2023-03-03T05:39:02.468Z,83.49
2023-03-03T05:41:05.293Z,82.95
2023-03-03T05:43:07.987Z,83.60
2023-03-03T05:45:11.601Z,83.15
2023-03-03T05:47:14.205Z,83.90
2023-03-03T05:49:17.068Z,83.07
2023-03-03T05:51:19.795Z,82.88
2023-03-03T05:53:22.437Z,83.01
2023-03-03T05:55:25.610Z,83.62
2023-03-03T05:57:28.377Z,82.56
2023-03-03T05:59:31.019Z,83.33
2023-03-03T06:01:34.058Z,82.65
2023-03-03T06:03:36.758Z,82.14
2023-03-03T06:05:39.426Z,82.09
2023-03-03T06:07:42.305Z,81.71
2023-03-03T06:09:44.881Z,81.93
2023-03-03T06:11:47.581Z,82.23
2023-03-03T06:13:50.565Z,81.15
2023-03-03T06:15:53.193Z,80.47
2023-03-03T06:17:55.885Z,81.17
2023-03-03T06:19:58.483Z,80.93
2023-03-03T06:22:01.118Z,80.51
2023-03-03T06:24:03.847Z,79.65
2023-03-03T06:26:06.541Z,80.21
2023-03-03T06:28:09.319Z,80.07
2023-03-03T06:30:13.153Z,79.21
2023-03-03T06:32:15.995Z,79.14
2023-03-03T06:34:19.799Z,79.94
2023-03-03T06:36:23.727Z,80.16
2023-03-03T06:38:26.531Z,79.82
2023-03-03T06:40:29.205Z,78.85
2023-03-03T06:42:31.939Z,78.42
2023-03-03T06:44:34.655Z,77.88
2023-03-03T06:46:37.290Z,78.01
2023-03-03T06:48:40.994Z,77.82
2023-03-03T06:50:43.650Z,78.20
2023-03-03T06:52:46.292Z,78.30
2023-03-03T06:54:49.776Z,78.25
2023-03-03T06:56:57.417Z,78.49
2023-03-03T06:59:02.992Z,77.13
2023-03-03T07:01:16.009Z,77.45
2023-03-03T07:03:23.384Z,78.17
2023-03-03T07:05:29.069Z,77.03
2023-03-03T07:07:31.677Z,77.21
2023-03-03T07:09:34.349Z,76.61
2023-03-03T07:11:39.906Z,76.43
2023-03-03T07:13:55.760Z,75.03
2023-03-03T07:16:02.418Z,75.93
2023-03-03T07:18:30.983Z,74.26
2023-03-03T07:20:39.024Z,75.32
2023-03-03T07:22:41.753Z,75.17
2023-03-03T07:24:47.525Z,73.90
2023-03-03T07:26:50.208Z,74.56
2023-03-03T07:29:00.463Z,74.69
2023-03-03T07:31:27.654Z,74.58
2023-03-03T07:33:38.110Z,74.00
2023-03-03T07:35:45.182Z,73.90
2023-03-03T07:37:48.765Z,72.09
2023-03-03T07:39:51.651Z,73.30
2023-03-03T07:42:01.559Z,73.07
2023-03-03T07:44:38.220Z,73.45
2023-03-03T07:47:00.902Z,73.76
2023-03-03T07:49:20.948Z,72.93
2023-03-03T07:51:43.665Z,72.26
2023-03-03T07:53:47.651Z,72.55
2023-03-03T07:55:50.985Z,72.20
2023-03-03T07:57:59.120Z,71.75
2023-03-03T08:00:17.119Z,72.27
2023-03-03T08:02:43.785Z,72.31
2023-03-03T08:04:51.145Z,71.92
2023-03-03T08:06:56.122Z,70.92
2023-03-03T08:09:12.032Z,71.73
2023-03-03T08:11:14.701Z,71.05
2023-03-03T08:13:21.572Z,71.55
2023-03-03T08:15:28.207Z,71.43
2023-03-03T08:17:40.096Z,70.58
2023-03-03T08:19:42.723Z,69.65
2023-03-03T08:21:45.541Z,68.97
2023-03-03T08:23:52.046Z,68.54
2023-03-03T08:25:54.996Z,69.67
2023-03-03T08:27:57.712Z,68.30
2023-03-03T08:30:00.526Z,68.98
2023-03-03T08:32:03.409Z,68.77
2023-03-03T08:34:06.228Z,67.50
2023-03-03T08:36:09.177Z,66.31
2023-03-03T08:38:13.857Z,66.08
2023-03-03T08:40:16.604Z,66.71
2023-03-03T08:42:19.696Z,66.87
2023-03-03T08:44:22.326Z,67.61
2023-03-03T08:46:25.014Z,66.62
2023-03-03T08:48:28.707Z,66.28
2023-03-03T08:50:31.414Z,67.26
2023-03-03T08:52:34.532Z,67.98
2023-03-03T08:54:37.229Z,66.84
2023-03-03T08:56:40.556Z,67.55
2023-03-03T08:59:01.627Z,66.38
2023-03-03T09:01:05.343Z,66.10
2023-03-03T09:03:08.368Z,65.36
2023-03-03T09:05:12.272Z,67.39
2023-03-03T09:07:14.957Z,68.40
2023-03-03T09:09:17.694Z,68.61
2023-03-03T09:11:26.658Z,67.96
2023-03-03T09:13:31.654Z,67.06
2023-03-03T09:15:36.570Z,68.72
2023-03-03T09:17:39.303Z,70.29
2023-03-03T09:19:42.030Z,70.18
2023-03-03T09:21:44.791Z,70.09
2023-03-03T09:23:55.115Z,66.45
2023-03-03T09:26:06.534Z,68.46
2023-03-03T09:28:25.155Z,68.41
2023-03-03T09:30:36.562Z,70.59
2023-03-03T09:32:43.371Z,71.62
2023-03-03T09:34:48.033Z,70.99
2023-03-03T09:36:53.067Z,70.54
2023-03-03T09:38:58.308Z,71.86
2023-03-03T09:41:12.764Z,70.94
2023-03-03T09:43:26.813Z,71.33
2023-03-03T09:45:41.046Z,70.90
2023-03-03T09:48:14.906Z,67.85
2023-03-03T09:50:36.915Z,69.62
2023-03-03T09:53:12.232Z,69.87
2023-03-03T09:55:17.417Z,73.98
2023-03-03T09:57:40.006Z,72.39
2023-03-03T09:59:58.861Z,72.61
2023-03-03T10:02:36.791Z,72.37
2023-03-03T10:04:58.002Z,73.33
2023-03-03T10:07:36.126Z,70.52
2023-03-03T10:10:01.679Z,74.39
2023-03-03T10:12:27.903Z,74.73
2023-03-03T10:15:12.241Z,74.42
2023-03-03T10:17:33.224Z,75.75
2023-03-03T10:19:55.433Z,76.12
2023-03-03T10:22:15.620Z,73.35
2023-03-03T10:24:29.089Z,76.68
2023-03-03T10:26:54.969Z,77.78
2023-03-03T10:29:22.204Z,76.41
2023-03-03T10:31:37.239Z,76.31
2023-03-03T10:33:58.147Z,74.92
2023-03-03T10:36:09.891Z,77.72
2023-03-03T10:38:37.485Z,76.71
2023-03-03T10:40:49.280Z,76.51
2023-03-03T10:43:31.224Z,78.43
2023-03-03T10:45:37.556Z,78.56
2023-03-03T10:47:49.890Z,79.12
2023-03-03T10:50:10.982Z,79.90
2023-03-03T10:52:22.830Z,79.23
2023-03-03T10:54:53.465Z,76.48
2023-03-03T10:56:56.015Z,77.80
2023-03-03T10:59:10.059Z,78.27
2023-03-03T11:01:27.076Z,79.62
2023-03-03T11:03:50.097Z,78.93
2023-03-03T11:06:02.590Z,79.28
2023-03-03T11:08:14.506Z,80.88
2023-03-03T11:10:32.262Z,80.86
2023-03-03T11:12:40.824Z,81.90
2023-03-03T11:15:02.204Z,79.75
2023-03-03T11:17:28.261Z,79.65
2023-03-03T11:19:52.853Z,81.60
2023-03-03T11:22:14.294Z,80.63
2023-03-03T11:24:40.569Z,82.22
2023-03-03T11:26:50.407Z,83.36
2023-03-03T11:29:08.373Z,81.42
2023-03-03T11:31:16.916Z,83.07
2023-03-03T11:33:45.422Z,83.02
2023-03-03T11:36:06.614Z,81.17
2023-03-03T11:38:18.076Z,83.07
2023-03-03T11:40:27.489Z,83.38
2023-03-03T11:43:05.696Z,80.63
2023-03-03T11:45:27.965Z,82.46
2023-03-03T11:47:31.820Z,82.12
2023-03-03T11:49:49.533Z,82.11
2023-03-03T11:52:27.776Z,82.29
2023-03-03T11:54:56.975Z,82.97
2023-03-03T11:57:27.810Z,83.41
2023-03-03T11:59:40.267Z,83.93
2023-03-03T12:02:05.980Z,83.74
2023-03-03T12:04:19.710Z,83.97
2023-03-03T12:06:45.636Z,84.37
2023-03-03T12:09:18.585Z,81.50
2023-03-03T12:11:24.178Z,82.74
2023-03-03T12:13:52.280Z,82.80
2023-03-03T12:16:26.824Z,83.12
2023-03-03T12:18:29.395Z,84.07
2023-03-03T12:20:40.745Z,83.93
2023-03-03T12:23:04.492Z,84.19
2023-03-03T12:25:20.657Z,85.17
2023-03-03T12:27:51.500Z,84.06
2023-03-03T12:30:23.887Z,85.34
2023-03-03T12:33:09.216Z,85.58
2023-03-03T12:35:26.268Z,86.54
2023-03-03T12:37:49.291Z,86.94
2023-03-03T12:40:33.719Z,87.19
2023-03-03T12:43:06.181Z,87.22
2023-03-03T12:45:37.049Z,88.07
2023-03-03T12:47:47.349Z,88.06
2023-03-03T12:50:08.120Z,88.64
2023-03-03T12:52:44.817Z,88.42
2023-03-03T12:55:05.756Z,87.82
2023-03-03T12:57:17.742Z,88.71
2023-03-03T12:59:26.178Z,89.19
2023-03-03T13:01:49.378Z,90.33
2023-03-03T13:04:05.514Z,90.52
2023-03-03T13:06:40.327Z,88.84
2023-03-03T13:09:09.450Z,87.24
2023-03-03T13:11:46.273Z,87.25
2023-03-03T13:14:01.482Z,89.12
2023-03-03T13:16:40.558Z,89.58
2023-03-03T13:19:03.097Z,91.30
2023-03-03T13:21:32.924Z,91.19
2023-03-03T13:23:53.338Z,91.28
2023-03-03T13:25:58.428Z,91.26
2023-03-03T13:28:53.617Z,91.11
2023-03-03T13:31:03.648Z,91.09
2023-03-03T13:33:31.435Z,91.11
2023-03-03T13:35:55.449Z,91.79
2023-03-03T13:37:59.721Z,93.07
2023-03-03T13:40:14.903Z,92.85
2023-03-03T13:42:46.100Z,91.51
2023-03-03T13:44:51.258Z,92.75
2023-03-03T13:47:02.907Z,92.60
2023-03-03T13:49:26.568Z,92.04
2023-03-03T13:51:35.114Z,92.18
2023-03-03T13:54:02.462Z,91.67
2023-03-03T13:56:32.299Z,91.94
2023-03-03T13:58:44.029Z,92.48
2023-03-03T14:00:59.381Z,92.16
2023-03-03T14:03:34.244Z,92.29
2023-03-03T14:05:48.354Z,92.54
2023-03-03T14:08:09.605Z,92.20
2023-03-03T14:10:36.039Z,92.03
2023-03-03T14:12:50.480Z,92.51
2023-03-03T14:14:53.080Z,92.30
2023-03-03T14:17:24.052Z,91.55
2023-03-03T14:19:33.263Z,92.50
2023-03-03T14:21:57.203Z,90.19
2023-03-03T14:24:25.402Z,90.24
2023-03-03T14:26:28.116Z,89.37
2023-03-03T14:28:40.084Z,88.87
2023-03-03T14:30:45.527Z,88.29
2023-03-03T14:33:04.402Z,86.70
2023-03-03T14:35:18.467Z,86.60
2023-03-03T14:37:30.125Z,87.77
2023-03-03T14:39:39.126Z,87.54
2023-03-03T14:41:42.491Z,88.53
2023-03-03T14:44:19.212Z,87.41
2023-03-03T14:46:27.861Z,88.62
2023-03-03T14:48:32.664Z,88.70
2023-03-03T14:50:44.042Z,88.81
2023-03-03T14:53:12.004Z,89.51
2023-03-03T14:55:45.452Z,89.00
2023-03-03T14:57:48.276Z,90.15
2023-03-03T15:00:11.195Z,90.63
2023-03-03T15:02:16.542Z,90.64
2023-03-03T15:04:21.697Z,90.61
2023-03-03T15:06:29.108Z,90.30
2023-03-03T15:08:34.790Z,91.09
2023-03-03T15:10:41.179Z,91.25
2023-03-03T15:12:43.999Z,91.06
2023-03-03T15:14:49.266Z,91.31
2023-03-03T15:16:52.303Z,90.75
2023-03-03T15:19:16.609Z,88.99
2023-03-03T15:21:32.414Z,88.35
2023-03-03T15:23:44.148Z,89.04
2023-03-03T15:26:01.076Z,88.96
2023-03-03T15:28:08.346Z,89.08
2023-03-03T15:30:44.300Z,88.70
2023-03-03T15:33:20.967Z,88.31
2023-03-03T15:35:45.102Z,87.65
2023-03-03T15:37:56.738Z,87.17
2023-03-03T15:40:13.974Z,87.25
2023-03-03T15:42:43.156Z,86.88
2023-03-03T15:45:06.533Z,87.28
2023-03-03T15:47:15.114Z,87.40
2023-03-03T15:49:38.404Z,86.93
2023-03-03T15:52:02.261Z,86.15
2023-03-03T15:54:15.591Z,86.28
2023-03-03T15:56:33.331Z,85.19
2023-03-03T15:58:57.661Z,86.43
2023-03-03T16:01:27.428Z,86.00
2023-03-03T16:03:46.711Z,85.68
2023-03-03T16:06:03.970Z,86.78
2023-03-03T16:08:36.168Z,85.72
2023-03-03T16:10:55.520Z,86.17
2023-03-03T16:13:06.258Z,86.13
2023-03-03T16:15:37.844Z,86.37
2023-03-03T16:18:07.241Z,86.74
2023-03-03T16:20:42.183Z,86.97
2023-03-03T16:23:12.560Z,85.94
2023-03-03T16:25:42.611Z,86.48
2023-03-03T16:28:00.088Z,86.30
2023-03-03T16:30:43.268Z,86.35
2023-03-03T16:33:03.483Z,85.15
2023-03-03T16:35:25.907Z,85.67
2023-03-03T16:37:36.748Z,86.20
2023-03-03T16:40:11.491Z,86.42
2023-03-03T16:42:28.600Z,85.68
2023-03-03T16:44:50.467Z,85.62
2023-03-03T16:46:56.648Z,85.75
2023-03-03T16:49:18.064Z,86.32
2023-03-03T16:51:53.181Z,85.86
2023-03-03T16:54:19.335Z,86.13
2023-03-03T16:56:34.665Z,86.84
2023-03-03T16:59:04.790Z,86.45
2023-03-03T17:01:16.356Z,87.23
2023-03-03T17:03:40.443Z,87.06
2023-03-03T17:05:52.334Z,87.61
2023-03-03T17:08:10.353Z,87.27
2023-03-03T17:10:52.063Z,86.76
2023-03-03T17:12:54.789Z,87.88
2023-03-03T17:15:15.650Z,87.86
2023-03-03T17:17:26.455Z,87.89
2023-03-03T17:19:44.247Z,87.94
2023-03-03T17:22:18.225Z,88.58
2023-03-03T17:24:41.779Z,88.73
2023-03-03T17:27:09.076Z,88.73
2023-03-03T17:29:47.666Z,89.13
2023-03-03T17:32:12.377Z,89.26
2023-03-03T17:34:39.548Z,89.33
2023-03-03T17:37:19.498Z,89.98
2023-03-03T17:39:39.947Z,90.12
2023-03-03T17:41:54.225Z,90.45
2023-03-03T17:44:38.432Z,89.98
2023-03-03T17:46:55.148Z,89.69
2023-03-03T17:49:18.571Z,90.21
2023-03-03T17:51:46.551Z,90.38
2023-03-03T17:54:33.990Z,90.37
2023-03-03T17:57:16.956Z,90.45
2023-03-03T17:59:56.984Z,91.07
2023-03-03T18:02:24.516Z,90.90
2023-03-03T18:05:02.439Z,90.65
2023-03-03T18:07:18.944Z,91.21
2023-03-03T18:09:26.440Z,90.91
2023-03-03T18:11:39.999Z,91.40
2023-03-03T18:14:01.393Z,91.43
2023-03-03T18:16:26.860Z,91.50
2023-03-03T18:18:35.094Z,91.30
2023-03-03T18:20:56.693Z,91.49
2023-03-03T18:23:24.159Z,91.59
2023-03-03T18:26:03.261Z,91.96
2023-03-03T18:28:05.963Z,91.87
2023-03-03T18:30:08.661Z,92.18
2023-03-03T18:32:20.586Z,91.78
2023-03-03T18:34:35.917Z,92.33
2023-03-03T18:36:56.189Z,92.49
2023-03-03T18:39:03.154Z,92.78
2023-03-03T18:41:13.451Z,93.23
2023-03-03T18:43:45.198Z,93.54
2023-03-03T18:45:50.305Z,93.45
2023-03-03T18:48:04.316Z,93.48
2023-03-03T18:50:25.853Z,93.79
2023-03-03T18:52:31.105Z,94.19
2023-03-03T18:54:40.049Z,94.22
2023-03-03T18:56:57.998Z,94.45
2023-03-03T18:59:00.612Z,94.46
2023-03-03T19:01:11.874Z,94.16
2023-03-03T19:03:28.537Z,94.51
2023-03-03T19:05:49.048Z,94.32
2023-03-03T19:08:01.884Z,94.07
2023-03-03T19:10:40.212Z,94.23
2023-03-03T19:12:42.869Z,94.29
2023-03-03T19:14:48.407Z,94.00
2023-03-03T19:16:52.589Z,94.21
2023-03-03T19:18:55.295Z,93.97
2023-03-03T19:21:19.045Z,94.16
2023-03-03T19:23:50.071Z,93.49
2023-03-03T19:26:23.559Z,93.15
2023-03-03T19:28:46.537Z,92.98
2023-03-03T19:30:59.370Z,92.89
2023-03-03T19:33:40.936Z,92.63
2023-03-03T19:36:00.360Z,92.58
2023-03-03T19:38:11.869Z,92.97
2023-03-03T19:40:52.065Z,93.27
2023-03-03T19:43:09.393Z,93.42
2023-03-03T19:45:40.958Z,93.72
2023-03-03T19:48:06.598Z,94.00
2023-03-03T19:50:29.417Z,94.29
2023-03-03T19:52:41.750Z,94.81
2023-03-03T19:55:02.564Z,94.71
2023-03-03T19:57:20.194Z,95.42
2023-03-03T19:59:46.518Z,95.42
2023-03-03T20:02:07.447Z,96.39
2023-03-03T20:04:28.149Z,96.13
2023-03-03T20:06:51.334Z,96.19
2023-03-03T20:08:59.490Z,96.46
2023-03-03T20:11:36.054Z,96.18
2023-03-03T20:13:44.335Z,96.89
2023-03-03T20:16:04.983Z,97.28
2023-03-03T20:18:38.799Z,97.82
2023-03-03T20:21:00.266Z,97.66
2023-03-03T20:23:17.403Z,97.65
2023-03-03T20:25:36.021Z,98.05
2023-03-03T20:28:05.899Z,97.78
2023-03-03T20:30:47.297Z,97.98
2023-03-03T20:33:03.194Z,98.09
2023-03-03T20:35:26.054Z,98.33
2023-03-03T20:37:46.743Z,98.29
2023-03-03T20:40:11.713Z,99.03
2023-03-03T20:42:27.144Z,98.77
2023-03-03T20:45:08.246Z,99.17
2023-03-03T20:47:31.573Z,99.03
2023-03-03T20:49:49.386Z,98.73
2023-03-03T20:52:04.311Z,98.60
2023-03-03T20:54:51.047Z,98.43
2023-03-03T20:57:19.911Z,98.17
2023-03-03T20:59:34.721Z,98.13
2023-03-03T21:01:53.418Z,98.31
2023-03-03T21:04:22.172Z,97.92
2023-03-03T21:06:39.056Z,97.70
2023-03-03T21:08:55.036Z,97.63
2023-03-03T21:10:57.934Z,97.90
2023-03-03T21:13:27.075Z,98.01
2023-03-03T21:15:34.058Z,98.30
2023-03-03T21:17:36.688Z,97.98
2023-03-03T21:19:39.320Z,98.05
2023-03-03T21:21:46.473Z,98.06
2023-03-03T21:23:50.910Z,98.39
2023-03-03T21:25:55.319Z,98.26
2023-03-03T21:28:32.223Z,98.31
2023-03-03T21:30:34.888Z,98.58
2023-03-03T21:32:44.984Z,98.75
2023-03-03T21:35:03.992Z,98.78
2023-03-03T21:37:12.442Z,98.79
2023-03-03T21:39:31.468Z,99.21
2023-03-03T21:41:57.022Z,98.82
2023-03-03T21:43:59.796Z,99.46
2023-03-03T21:46:03.597Z,99.33
2023-03-03T21:48:06.574Z,99.00
2023-03-03T21:50:09.821Z,99.36
2023-03-03T21:52:15.164Z,99.12
2023-03-03T21:54:17.929Z,99.69
2023-03-03T21:56:20.497Z,99.48
2023-03-03T21:58:23.413Z,100.00
2023-03-03T22:00:26.406Z,99.95
2023-03-03T22:02:29.037Z,99.84
2023-03-03T22:04:31.891Z,100.00
2023-03-03T22:06:34.624Z,100.00
2023-03-03T22:08:37.274Z,100.00
2023-03-03T22:10:39.931Z,100.00
2023-03-03T22:12:42.513Z,100.00
2023-03-03T22:14:45.184Z,100.00
2023-03-03T22:16:47.890Z,100.00
2023-03-03T22:18:50.629Z,100.00
2023-03-03T22:20:53.196Z,100.00
2023-03-03T22:22:55.894Z,100.00
2023-03-03T22:24:58.449Z,100.00
2023-03-03T22:27:01.046Z,99.88
2023-03-03T22:29:04.077Z,100.00
2023-03-03T22:31:07.407Z,100.00
2023-03-03T22:33:10.142Z,100.00
2023-03-03T22:35:12.890Z,100.00
2023-03-03T22:37:15.546Z,100.00
2023-03-03T22:39:18.084Z,100.00
2023-03-03T22:41:20.805Z,100.00
2023-03-03T22:43:23.606Z,100.00
2023-03-03T22:45:26.430Z,100.00
2023-03-03T22:47:29.076Z,100.00
2023-03-03T22:49:31.754Z,100.00
2023-03-03T22:51:34.407Z,100.00
2023-03-03T22:53:37.021Z,100.00
2023-03-03T22:55:39.693Z,100.00
2023-03-03T22:57:42.714Z,100.00
2023-03-03T22:59:45.317Z,100.00
2023-03-03T23:01:48.007Z,100.00
2023-03-03T23:03:50.758Z,100.00
2023-03-03T23:05:53.699Z,100.00
2023-03-03T23:07:56.329Z,100.00
2023-03-03T23:09:58.934Z,100.00
2023-03-03T23:12:02.172Z,100.00
2023-03-03T23:14:04.946Z,100.00
2023-03-03T23:16:07.954Z,100.00
2023-03-03T23:18:10.716Z,100.00
2023-03-03T23:20:17.023Z,100.00
2023-03-03T23:22:19.841Z,100.00
2023-03-03T23:24:22.507Z,100.00
2023-03-03T23:26:25.176Z,100.00
2023-03-03T23:28:27.770Z,100.00
2023-03-03T23:30:30.404Z,100.00
2023-03-03T23:32:33.090Z,100.00
2023-03-03T23:34:35.902Z,100.00
2023-03-03T23:36:38.551Z,100.00
2023-03-03T23:38:43.080Z,100.00
2023-03-03T23:40:47.004Z,100.00
2023-03-03T23:42:49.894Z,100.00
2023-03-03T23:44:52.535Z,100.00
2023-03-03T23:46:55.237Z,100.00
2023-03-03T23:48:58.326Z,100.00
2023-03-03T23:51:01.694Z,100.00
2023-03-03T23:53:05.461Z,100.00
2023-03-03T23:55:08.597Z,100.00
2023-03-03T23:57:11.319Z,100.00
2023-03-03T23:59:15.188Z,100.00
